Terminal Aerodrome Forecast
Issued by NWS

Home | Current Version | Previous Version | Graphics & Text | Print | Product List | Glossary Off
Versions: 1 2 3 4 5 6 7 8 9 10 11 12 13 14 15 16 17 18 19 20 21 22 23 24 25 26 27 28

000
FTUS43 KDDC 142320
TAFGCK
TAF
KGCK 142320Z 1500/1524 02007KT P6SM VCSH BKN070
     FM150400 33018KT P6SM BKN015
     FM151500 32023G32KT P6SM BKN030=

USA.gov is the U.S. government's official web portal to all federal, state and local government web resources and services.